Time;durP1;ratioP1;P1;durP2;ratioP2;P2;SDS_P1;SDS_P2;PMS_P1;PMS_P2;Temp;Humidity;BMP_temperature;BMP_pressure;BME280_temperature;BME280_humidity;BME280_pressure;Samples;Min_cycle;Max_cycle;Signal;HPM_P1;HPM_P2
2020/12/24 00:02:26;;;;;;;4.85;2.58;;;;;;;-2.84;97.90;99014.22;4952534;28;20047;-70
2020/12/24 00:05:13;;;;;;;3.85;2.25;;;;;;;-2.84;97.26;99013.38;4952772;28;20055;-72
2020/12/24 00:07:59;;;;;;;3.83;2.20;;;;;;;-2.86;97.31;99008.28;4952726;29;20047;-70
2020/12/24 00:10:46;;;;;;;4.45;2.20;;;;;;;-2.85;97.17;99011.69;4952453;28;20087;-71
2020/12/24 00:13:32;;;;;;;4.32;2.40;;;;;;;-2.86;98.25;99010.03;4939380;29;20109;-67
2020/12/24 00:16:19;;;;;;;4.05;2.25;;;;;;;-2.85;97.49;99011.69;4952261;28;20044;-70
2020/12/24 00:19:05;;;;;;;4.65;2.33;;;;;;;-2.85;97.80;99011.69;4952361;28;20436;-71
2020/12/24 00:21:51;;;;;;;4.22;2.30;;;;;;;-2.84;97.80;99006.53;4949365;29;20090;-69
2020/12/24 00:24:39;;;;;;;4.10;2.45;;;;;;;-2.83;97.77;99000.50;4952415;29;20051;-67
2020/12/24 00:27:25;;;;;;;3.92;2.50;;;;;;;-2.83;97.98;99008.19;4938838;29;20048;-67
2020/12/24 00:30:12;;;;;;;3.70;2.10;;;;;;;-2.83;97.12;99005.63;4952174;28;20051;-68
2020/12/24 00:32:58;;;;;;;4.00;2.33;;;;;;;-2.83;98.26;99008.19;4952237;28;20083;-71
2020/12/24 00:35:44;;;;;;;4.60;2.50;;;;;;;-2.81;97.36;98999.63;4952313;28;20047;-72
2020/12/24 00:38:31;;;;;;;4.28;2.38;;;;;;;-2.85;98.06;98996.34;4938878;29;20047;-70
2020/12/24 00:41:19;;;;;;;4.15;2.30;;;;;;;-2.85;98.11;98993.78;4951591;28;20050;-69
2020/12/24 00:44:05;;;;;;;5.57;2.60;;;;;;;-2.82;98.17;98991.13;4953993;28;20410;-70
2020/12/24 00:46:52;;;;;;;4.35;2.50;;;;;;;-2.86;97.81;98990.38;4955616;29;20043;-69
2020/12/24 00:49:39;;;;;;;4.65;2.20;;;;;;;-2.84;97.97;98987.78;4941891;29;20043;-71
2020/12/24 00:52:26;;;;;;;5.70;3.00;;;;;;;-2.84;97.61;98985.25;4954698;28;20054;-68
2020/12/24 00:55:12;;;;;;;4.70;2.65;;;;;;;-2.84;98.13;98985.25;4965780;28;20054;-70
2020/12/24 00:57:59;;;;;;;4.70;2.90;;;;;;;-2.87;97.21;98980.22;4941337;29;20047;-69
2020/12/24 01:00:48;;;;;;;4.50;2.70;;;;;;;-2.85;98.12;98988.66;4935709;29;20533;-68
2020/12/24 01:03:34;;;;;;;4.55;2.70;;;;;;;-2.85;98.50;98989.53;4955983;28;20104;-67
2020/12/24 01:06:21;;;;;;;5.20;3.00;;;;;;;-2.85;98.21;98991.22;4955395;29;20043;-72
2020/12/24 01:09:07;;;;;;;4.93;2.65;;;;;;;-2.87;98.31;98986.16;4955096;28;20110;-70
2020/12/24 01:11:53;;;;;;;4.75;3.00;;;;;;;-2.87;98.17;98986.16;4955137;29;20043;-71
2020/12/24 01:14:40;;;;;;;4.78;2.70;;;;;;;-2.86;97.62;98984.44;4954961;29;20121;-66
2020/12/24 01:17:26;;;;;;;4.10;2.40;;;;;;;-2.83;98.81;98985.16;4955186;29;20083;-67
2020/12/24 01:20:12;;;;;;;4.82;2.88;;;;;;;-2.85;98.64;98973.31;4954416;28;20079;-67
2020/12/24 01:22:59;;;;;;;4.72;2.53;;;;;;;-2.84;97.92;98980.94;4941739;29;20066;-66
2020/12/24 01:25:46;;;;;;;5.57;3.08;;;;;;;-2.82;98.72;98983.44;4953797;29;20118;-70
2020/12/24 01:28:32;;;;;;;5.93;3.05;;;;;;;-2.83;98.55;98982.63;4954813;28;20090;-69
2020/12/24 01:31:19;;;;;;;4.13;2.40;;;;;;;-2.82;97.81;98983.44;4941275;29;20086;-69
2020/12/24 01:34:05;;;;;;;4.03;2.30;;;;;;;-2.82;98.78;98980.88;4954901;28;20082;-67
2020/12/24 01:36:52;;;;;;;4.00;2.35;;;;;;;-2.84;97.92;98983.50;4954748;29;20047;-68
2020/12/24 01:39:38;;;;;;;4.68;2.45;;;;;;;-2.85;98.31;98979.28;4940884;29;20047;-68
2020/12/24 01:42:25;;;;;;;5.10;2.88;;;;;;;-2.80;99.26;98978.25;4955235;29;20427;-72
2020/12/24 01:45:11;;;;;;;4.82;2.65;;;;;;;-2.81;98.89;98972.31;4954551;29;20062;-69
2020/12/24 01:47:58;;;;;;;4.32;2.47;;;;;;;-2.80;98.14;98973.13;4954907;28;20054;-72
2020/12/24 01:50:44;;;;;;;4.05;2.35;;;;;;;-2.78;99.24;98969.66;4940710;29;20047;-67
2020/12/24 01:53:34;;;;;;;3.83;2.03;;;;;;;-2.76;99.19;98979.81;4954593;28;20407;-69
2020/12/24 01:56:22;;;;;;;3.72;2.45;;;;;;;-2.75;99.44;98973.78;4954020;28;20047;-67
2020/12/24 01:59:19;;;;;;;4.55;2.50;;;;;;;-2.77;98.66;98973.03;4954160;29;20510;-70
2020/12/24 02:02:06;;;;;;;4.55;2.38;;;;;;;-2.73;98.80;98969.47;4952571;29;20165;-67
2020/12/24 02:04:57;;;;;;;5.32;2.70;;;;;;;-2.74;98.78;98966.09;4951104;29;20058;-70
2020/12/24 02:07:44;;;;;;;5.55;3.05;;;;;;;-2.73;98.58;98969.47;4952064;28;20086;-67
2020/12/24 02:10:31;;;;;;;4.75;2.45;;;;;;;-2.75;98.38;98966.97;4953505;29;20051;-68
2020/12/24 02:13:17;;;;;;;5.32;2.78;;;;;;;-2.75;98.48;98964.41;4954078;29;20133;-66
2020/12/24 02:16:03;;;;;;;4.90;2.80;;;;;;;-2.74;98.56;98962.69;4940600;29;20055;-66
2020/12/24 02:18:50;;;;;;;4.32;2.38;;;;;;;-2.73;98.58;98961.78;4953886;28;20458;-66
2020/12/24 02:21:36;;;;;;;4.40;2.55;;;;;;;-2.72;98.94;98963.44;4953540;29;20518;-69
2020/12/24 02:24:23;;;;;;;3.88;2.30;;;;;;;-2.73;98.69;98962.63;4940418;29;20047;-68
2020/12/24 02:27:10;;;;;;;4.95;2.55;;;;;;;-2.71;99.42;98952.31;4940569;29;20094;-70
2020/12/24 02:30:01;;;;;;;4.90;2.45;;;;;;;-2.72;98.78;98954.06;4945070;29;20059;-70
2020/12/24 02:32:47;;;;;;;4.13;2.33;;;;;;;-2.71;99.65;98949.75;4953789;29;20055;-72
2020/12/24 02:35:34;;;;;;;4.55;2.33;;;;;;;-2.70;98.69;98954.00;4953795;28;20051;-69
2020/12/24 02:38:20;;;;;;;4.97;3.05;;;;;;;-2.69;98.55;98953.94;4953454;29;20043;-68
2020/12/24 02:41:07;;;;;;;4.82;2.75;;;;;;;-2.69;98.59;98955.66;4950884;29;20114;-71
2020/12/24 02:43:53;;;;;;;4.35;2.30;;;;;;;-2.66;98.59;98950.41;4950966;28;20047;-66
2020/12/24 02:46:41;;;;;;;4.47;2.10;;;;;;;-2.65;99.68;98949.53;4953210;29;20055;-67
2020/12/24 02:49:27;;;;;;;3.63;2.35;;;;;;;-2.66;98.66;98961.50;4953325;29;20100;-71
2020/12/24 02:52:14;;;;;;;3.60;2.20;;;;;;;-2.66;98.69;98952.97;4953181;29;20047;-69
2020/12/24 02:55:05;;;;;;;4.57;2.40;;;;;;;-2.64;98.42;98954.59;4938112;29;20047;-68
2020/12/24 02:57:51;;;;;;;4.57;2.35;;;;;;;-2.64;99.07;98954.59;4940203;29;20098;-68
2020/12/24 03:00:38;;;;;;;4.38;2.42;;;;;;;-2.65;98.59;98950.38;4952418;28;20043;-67
2020/12/24 03:03:25;;;;;;;4.32;2.13;;;;;;;-2.66;98.53;98942.75;4953453;28;20051;-68
2020/12/24 03:06:11;;;;;;;5.13;2.83;;;;;;;-2.63;99.29;98951.13;4952358;28;20122;-71
2020/12/24 03:08:58;;;;;;;4.75;2.38;;;;;;;-2.64;98.98;98952.03;4953023;29;20138;-67
2020/12/24 03:11:49;;;;;;;4.43;2.50;;;;;;;-2.64;99.40;98952.03;4953003;28;20082;-68
2020/12/24 03:14:36;;;;;;;4.57;2.67;;;;;;;-2.63;98.44;98942.63;4953202;29;20153;-71
2020/12/24 03:17:23;;;;;;;5.28;2.83;;;;;;;-2.65;99.04;98947.81;4939846;29;20106;-65
2020/12/24 03:20:09;;;;;;;4.70;2.55;;;;;;;-2.65;99.00;98947.81;4952409;29;20094;-68
2020/12/24 03:22:56;;;;;;;4.47;2.50;;;;;;;-2.61;99.41;98951.09;4953221;28;20058;-66
2020/12/24 03:25:42;;;;;;;4.53;2.40;;;;;;;-2.61;98.66;98946.81;4952968;29;20082;-68
2020/12/24 03:28:28;;;;;;;4.80;2.50;;;;;;;-2.59;99.23;98949.28;4926665;29;20168;-70
2020/12/24 03:31:22;;;;;;;4.63;2.55;;;;;;;-2.60;98.16;98948.47;4952829;29;20098;-68
2020/12/24 03:34:08;;;;;;;4.03;2.22;;;;;;;-2.57;98.64;98947.50;4951651;28;20042;-66
2020/12/24 03:36:55;;;;;;;5.90;2.42;;;;;;;-2.57;99.22;98948.31;4952797;28;20051;-70
2020/12/24 03:39:42;;;;;;;4.15;2.20;;;;;;;-2.57;99.12;98950.88;4952617;29;20094;-65
2020/12/24 03:42:28;;;;;;;4.18;2.38;;;;;;;-2.56;98.90;98949.19;4952644;28;20090;-67
2020/12/24 03:45:14;;;;;;;4.53;2.35;;;;;;;-2.54;98.86;98944.81;4952780;28;20058;-69
2020/12/24 03:48:01;;;;;;;4.10;2.60;;;;;;;-2.53;98.25;98946.47;4939352;28;20413;-67
2020/12/24 03:50:55;;;;;;;4.55;2.60;;;;;;;-2.52;99.07;98944.75;4952067;28;20422;-69
2020/12/24 03:53:41;;;;;;;5.25;2.50;;;;;;;-2.52;99.28;98942.19;4953188;28;20055;-68
2020/12/24 03:56:28;;;;;;;4.65;2.60;;;;;;;-2.53;98.65;98933.69;4952677;29;20133;-70
2020/12/24 03:59:14;;;;;;;4.65;2.58;;;;;;;-2.52;98.31;98931.97;4952614;29;20047;-70
2020/12/24 04:02:00;;;;;;;4.75;2.88;;;;;;;-2.57;98.50;98939.81;4939165;29;20047;-69
2020/12/24 04:04:47;;;;;;;5.28;2.92;;;;;;;-2.58;98.79;98935.59;4949960;29;20067;-68
2020/12/24 04:07:33;;;;;;;5.55;2.78;;;;;;;-2.59;98.26;98939.06;4952544;29;20058;-69
2020/12/24 04:10:20;;;;;;;5.70;3.08;;;;;;;-2.61;98.70;98935.75;4938763;29;20487;-70
2020/12/24 04:13:06;;;;;;;5.00;2.83;;;;;;;-2.63;97.85;98930.66;4952682;29;20051;-66
2020/12/24 04:15:53;;;;;;;4.25;2.47;;;;;;;-2.67;98.18;98934.22;4952386;29;20075;-70
2020/12/24 04:18:39;;;;;;;5.55;3.08;;;;;;;-2.68;98.76;98934.31;4955216;28;20499;-67
2020/12/24 04:21:26;;;;;;;5.28;2.90;;;;;;;-2.68;98.57;98936.88;4955427;29;20114;-70
2020/12/24 04:24:12;;;;;;;4.30;2.75;;;;;;;-2.71;98.29;98939.53;4956385;29;20079;-67
2020/12/24 04:26:58;;;;;;;5.57;2.78;;;;;;;-2.72;99.15;98933.59;4956166;28;20191;-70
2020/12/24 04:29:45;;;;;;;4.65;2.45;;;;;;;-2.72;99.16;98930.19;4955940;28;20047;-67
2020/12/24 04:32:33;;;;;;;4.80;2.63;;;;;;;-2.72;98.22;98931.03;4955823;28;20052;-70
2020/12/24 04:35:19;;;;;;;5.22;2.90;;;;;;;-2.69;99.06;98930.91;4943096;29;20506;-66
2020/12/24 04:38:06;;;;;;;7.45;2.85;;;;;;;-2.67;98.14;98933.41;4952565;29;20061;-69
2020/12/24 04:40:57;;;;;;;4.65;2.35;;;;;;;-2.66;99.35;98933.38;4955303;29;20067;-69
2020/12/24 04:43:46;;;;;;;7.10;3.58;;;;;;;-2.64;98.80;98933.28;4955814;29;20043;-66
2020/12/24 04:46:35;;;;;;;5.38;2.67;;;;;;;-2.62;99.53;98939.16;4955785;29;20566;-69
2020/12/24 04:49:25;;;;;;;5.85;3.22;;;;;;;-2.59;99.73;98936.50;4955802;28;20055;-66
2020/12/24 04:52:14;;;;;;;5.05;2.92;;;;;;;-2.59;99.18;98937.31;4955633;29;20051;-66
2020/12/24 04:55:03;;;;;;;5.55;2.67;;;;;;;-2.53;99.27;98930.31;4955778;28;20098;-72
2020/12/24 04:57:50;;;;;;;4.60;2.42;;;;;;;-2.52;99.33;98931.97;4929049;29;20098;-71
2020/12/24 05:00:39;;;;;;;6.85;3.03;;;;;;;-2.50;98.92;98935.31;4941665;29;20102;-66
2020/12/24 05:03:25;;;;;;;6.05;3.15;;;;;;;-2.49;99.50;98934.41;4956693;28;20051;-67
2020/12/24 05:06:18;;;;;;;5.00;3.15;;;;;;;-2.49;98.93;98935.25;4955429;29;20061;-70
2020/12/24 05:09:04;;;;;;;5.53;2.95;;;;;;;-2.49;98.34;98939.53;4954243;28;20463;-67
2020/12/24 05:11:51;;;;;;;6.15;3.08;;;;;;;-2.47;98.33;98942.84;4954966;28;20047;-68
2020/12/24 05:14:38;;;;;;;6.25;3.30;;;;;;;-2.45;99.32;98948.75;4955265;28;20047;-65
2020/12/24 05:17:25;;;;;;;5.40;2.90;;;;;;;-2.47;98.59;98945.41;4955276;29;20533;-68
2020/12/24 05:20:12;;;;;;;5.70;3.10;;;;;;;-2.44;99.40;98942.72;4955045;28;20558;-68
2020/12/24 05:23:20;;;;;;;6.15;2.95;;;;;;;-2.42;98.13;98946.91;4955154;28;20047;-68
2020/12/24 05:26:19;;;;;;;5.07;2.85;;;;;;;-2.43;98.21;98947.78;4955136;29;20102;-68
2020/12/24 05:29:12;;;;;;;5.93;3.22;;;;;;;-2.43;98.06;98947.78;4954049;28;20133;-69
2020/12/24 05:31:58;;;;;;;5.40;3.00;;;;;;;-2.43;99.17;98947.78;4954697;28;20063;-70
2020/12/24 05:34:45;;;;;;;6.05;3.30;;;;;;;-2.43;98.89;98950.34;4954878;28;20510;-70
2020/12/24 05:37:32;;;;;;;5.13;3.00;;;;;;;-2.45;98.94;98949.59;4954860;29;20047;-66
2020/12/24 05:40:27;;;;;;;5.20;3.03;;;;;;;-2.47;98.90;98946.25;4954556;28;20047;-68
2020/12/24 05:43:13;;;;;;;6.22;3.20;;;;;;;-2.46;98.35;98947.91;4941555;28;20054;-70
2020/12/24 05:46:04;;;;;;;5.45;3.20;;;;;;;-2.48;98.74;98956.53;4944492;29;20047;-66
2020/12/24 05:48:50;;;;;;;6.53;3.55;;;;;;;-2.50;98.19;98955.78;4954475;28;20061;-67
2020/12/24 05:51:38;;;;;;;7.85;4.03;;;;;;;-2.50;98.13;98950.66;4954279;29;20051;-70
2020/12/24 05:54:27;;;;;;;6.25;3.72;;;;;;;-2.50;98.81;98953.22;4954123;28;20051;-67
2020/12/24 05:57:13;;;;;;;5.25;3.45;;;;;;;-2.50;98.35;98954.06;4954848;29;20047;-69
2020/12/24 06:00:00;;;;;;;7.45;4.20;;;;;;;-2.52;98.09;98957.56;4954416;29;20118;-70
2020/12/24 06:03:09;;;;;;;5.25;3.47;;;;;;;-2.55;98.44;98957.69;4954267;29;20137;-68
2020/12/24 06:05:59;;;;;;;5.72;3.30;;;;;;;-2.53;98.68;98961.84;4954145;29;20095;-69
2020/12/24 06:08:47;;;;;;;4.80;3.03;;;;;;;-2.55;97.92;98965.38;4957417;28;20578;-69
2020/12/24 06:11:44;;;;;;;7.15;3.67;;;;;;;-2.59;98.88;98965.47;4940683;28;20047;-72
2020/12/24 06:14:32;;;;;;;5.72;3.17;;;;;;;-2.57;98.73;98970.53;4949066;29;20051;-69
2020/12/24 06:17:20;;;;;;;6.30;3.58;;;;;;;-2.57;99.11;98981.59;4940367;29;20164;-70
2020/12/24 06:20:16;;;;;;;6.78;3.47;;;;;;;-2.57;98.60;98971.34;4953235;28;20380;-67
2020/12/24 06:23:03;;;;;;;7.57;3.25;;;;;;;-2.56;99.13;98967.09;4954163;28;20043;-68
2020/12/24 06:25:53;;;;;;;6.07;3.65;;;;;;;-2.56;98.46;98974.78;4954002;28;20051;-69
2020/12/24 06:28:41;;;;;;;6.38;3.50;;;;;;;-2.58;98.92;98994.47;4953658;28;20114;-70
2020/12/24 06:31:29;;;;;;;5.75;3.33;;;;;;;-2.58;99.23;98991.91;4953819;28;20051;-68
2020/12/24 06:34:28;;;;;;;4.57;2.72;;;;;;;-2.57;99.54;98991.84;4953873;29;20118;-70
2020/12/24 06:37:17;;;;;;;6.03;3.13;;;;;;;-2.55;98.69;98986.69;4953936;28;20083;-71
2020/12/24 06:40:04;;;;;;;6.07;3.10;;;;;;;-2.57;98.50;98988.44;4953355;28;20043;-70
2020/12/24 06:42:51;;;;;;;5.55;3.50;;;;;;;-2.52;98.97;98991.66;4953363;28;20455;-68
2020/12/24 06:45:41;;;;;;;6.72;3.63;;;;;;;-2.51;98.77;98989.94;4949541;28;20054;-69
2020/12/24 06:48:28;;;;;;;3.83;2.65;;;;;;;-2.48;98.88;98994.94;4936815;29;20090;-68
2020/12/24 06:51:14;;;;;;;5.57;3.08;;;;;;;-2.49;98.95;99009.47;4953043;28;20047;-69
2020/12/24 06:54:18;;;;;;;6.28;3.13;;;;;;;-2.47;98.48;99010.25;4951033;28;20118;-70
2020/12/24 06:57:21;;;;;;;5.78;3.08;;;;;;;-2.46;98.23;99011.91;4937503;29;20118;-68
2020/12/24 07:00:21;;;;;;;4.72;2.80;;;;;;;-2.46;98.15;99014.47;4939559;29;20078;-68
2020/12/24 07:03:23;;;;;;;6.13;3.22;;;;;;;-2.44;98.25;99017.78;4939954;28;20054;-67
2020/12/24 07:06:10;;;;;;;6.13;3.67;;;;;;;-2.43;98.54;99013.50;4952937;28;20066;-70
2020/12/24 07:08:56;;;;;;;5.43;2.90;;;;;;;-2.44;99.04;98997.31;4939487;29;20122;-68
2020/12/24 07:11:48;;;;;;;5.30;3.17;;;;;;;-2.45;98.87;99002.50;4952669;28;20090;-66
2020/12/24 07:14:37;;;;;;;5.28;2.97;;;;;;;-2.44;98.68;99012.66;4952873;29;20047;-68
2020/12/24 07:17:24;;;;;;;6.43;3.20;;;;;;;-2.44;98.86;99012.66;4951682;29;20039;-67
2020/12/24 07:20:10;;;;;;;5.82;3.25;;;;;;;-2.44;98.98;99010.13;4952732;28;20632;-69
2020/12/24 07:23:13;;;;;;;5.93;3.33;;;;;;;-2.42;98.45;99003.22;4949769;29;20055;-68
2020/12/24 07:26:01;;;;;;;6.30;3.55;;;;;;;-2.40;98.93;99001.44;4952660;28;20110;-67
2020/12/24 07:28:53;;;;;;;6.10;3.55;;;;;;;-2.40;98.15;99003.97;4952304;28;20098;-69
2020/12/24 07:31:40;;;;;;;6.05;3.08;;;;;;;-2.38;99.32;98998.78;4952607;29;20055;-69
2020/12/24 07:34:28;;;;;;;5.03;2.85;;;;;;;-2.37;99.19;99001.31;4952332;28;20506;-68
2020/12/24 07:37:15;;;;;;;5.95;2.85;;;;;;;-2.38;98.35;99006.47;4952515;29;20118;-69
2020/12/24 07:40:02;;;;;;;5.47;2.78;;;;;;;-2.38;98.32;99019.28;4952347;29;20055;-67
2020/12/24 07:42:48;;;;;;;6.95;3.38;;;;;;;-2.37;98.64;99015.84;4952414;28;20050;-67
2020/12/24 07:45:35;;;;;;;6.38;3.50;;;;;;;-2.38;98.91;99009.88;4952181;29;20084;-70
2020/12/24 07:48:23;;;;;;;5.97;3.22;;;;;;;-2.37;98.36;99008.16;4952045;28;20122;-67
2020/12/24 07:51:10;;;;;;;5.80;2.70;;;;;;;-2.39;98.43;99023.56;4938868;29;20195;-71
2020/12/24 07:54:15;;;;;;;6.22;3.45;;;;;;;-2.38;98.66;99027.78;4955629;28;20075;-71
2020/12/24 07:57:01;;;;;;;6.07;3.67;;;;;;;-2.39;98.96;99030.41;4942857;29;20095;-69
2020/12/24 07:59:48;;;;;;;10.50;5.95;;;;;;;-2.39;98.44;99033.81;4956508;28;20098;-68
2020/12/24 08:02:35;;;;;;;6.22;3.85;;;;;;;-2.38;97.95;99035.47;4955910;28;20110;-66
2020/12/24 08:05:21;;;;;;;6.57;3.80;;;;;;;-2.41;98.30;99040.72;4956331;29;20051;-69
2020/12/24 08:08:08;;;;;;;6.80;4.10;;;;;;;-2.39;98.69;99044.03;4955870;29;20055;-70
2020/12/24 08:10:54;;;;;;;7.82;4.15;;;;;;;-2.34;98.91;99049.81;4955966;29;20055;-67
2020/12/24 08:13:41;;;;;;;6.47;3.80;;;;;;;-2.32;99.04;99049.78;4955920;28;20047;-67
2020/12/24 08:16:32;;;;;;;5.95;3.42;;;;;;;-2.29;97.89;99052.19;4942029;29;20075;-68
2020/12/24 08:19:25;;;;;;;5.32;2.63;;;;;;;-2.27;99.00;99049.59;4955698;28;20503;-68
2020/12/24 08:22:22;;;;;;;6.97;4.35;;;;;;;-2.23;98.63;99043.44;4947627;29;20052;-70
2020/12/24 08:25:09;;;;;;;7.90;4.43;;;;;;;-2.23;99.15;99051.97;4955906;29;20082;-67
2020/12/24 08:27:57;;;;;;;5.55;3.45;;;;;;;-2.25;98.09;99047.81;4955536;28;20137;-67
2020/12/24 08:30:49;;;;;;;6.70;4.03;;;;;;;-2.22;98.75;99051.09;4954690;28;20487;-69
2020/12/24 08:33:38;;;;;;;6.45;3.78;;;;;;;-2.20;97.67;99056.97;4955500;28;20059;-66
2020/12/24 08:36:26;;;;;;;7.38;4.00;;;;;;;-2.18;97.64;99064.59;4942106;29;20110;-70
2020/12/24 08:39:15;;;;;;;6.63;3.83;;;;;;;-2.19;97.57;99061.19;4955304;28;20047;-68
2020/12/24 08:42:03;;;;;;;7.93;4.20;;;;;;;-2.15;98.71;99065.28;4956907;28;20051;-68
2020/12/24 08:44:57;;;;;;;7.78;4.65;;;;;;;-2.19;97.61;99060.34;4955348;28;20047;-67
2020/12/24 08:47:43;;;;;;;6.73;3.67;;;;;;;-2.14;97.85;99061.00;4955057;29;20047;-67
2020/12/24 08:50:34;;;;;;;9.20;5.05;;;;;;;-2.13;98.60;99068.66;4954857;29;20379;-69
2020/12/24 08:53:25;;;;;;;6.38;3.63;;;;;;;-2.10;97.96;99057.44;4954971;29;20051;-67
2020/12/24 08:56:15;;;;;;;7.32;3.95;;;;;;;-2.11;97.86;99066.84;4955253;28;20051;-72
2020/12/24 08:59:07;;;;;;;7.55;4.40;;;;;;;-2.11;97.73;99066.03;4955027;29;20609;-68
2020/12/24 09:01:53;;;;;;;6.93;3.95;;;;;;;-2.08;97.70;99065.91;4954490;29;20499;-70
2020/12/24 09:04:52;;;;;;;7.18;4.32;;;;;;;-2.07;97.67;99076.09;4953760;28;20542;-71
2020/12/24 09:07:44;;;;;;;7.57;4.30;;;;;;;-2.04;97.98;99079.41;4955196;29;20043;-69
2020/12/24 09:10:31;;;;;;;7.03;4.38;;;;;;;-2.05;98.67;99078.56;4943078;29;20066;-67
2020/12/24 09:13:17;;;;;;;6.28;4.07;;;;;;;-2.01;97.51;99066.47;4954887;28;20059;-70
2020/12/24 09:16:10;;;;;;;6.75;3.80;;;;;;;-1.99;98.12;99077.50;4954817;29;20391;-72
2020/12/24 09:19:07;;;;;;;9.68;5.13;;;;;;;-1.98;98.18;99087.69;4954741;28;20498;-72
2020/12/24 09:21:56;;;;;;;9.23;5.20;;;;;;;-1.96;97.98;99083.34;4954458;29;20048;-71
2020/12/24 09:24:48;;;;;;;7.32;4.68;;;;;;;-1.96;97.62;99090.19;4953929;29;20044;-70
2020/12/24 09:27:42;;;;;;;7.25;4.30;;;;;;;-1.92;97.56;99095.13;4953716;29;20109;-71
2020/12/24 09:30:30;;;;;;;7.55;5.05;;;;;;;-1.90;98.18;99085.69;4953110;29;20071;-69
2020/12/24 09:33:16;;;;;;;7.55;4.20;;;;;;;-1.88;97.56;99080.47;4939088;29;20098;-69
2020/12/24 09:36:03;;;;;;;7.22;3.78;;;;;;;-1.85;97.27;99098.31;4952749;29;20059;-71
2020/12/24 09:38:50;;;;;;;7.70;4.43;;;;;;;-1.87;96.98;99087.25;4954819;28;20138;-68
2020/12/24 09:41:41;;;;;;;6.32;4.05;;;;;;;-1.86;97.65;99091.47;4954440;29;20055;-68
2020/12/24 09:44:27;;;;;;;6.15;3.83;;;;;;;-1.83;97.09;99099.06;4954672;29;20055;-69
2020/12/24 09:47:13;;;;;;;5.55;3.58;;;;;;;-1.84;97.74;99085.41;4954487;29;20474;-73
2020/12/24 09:50:00;;;;;;;7.28;4.07;;;;;;;-1.83;97.67;99076.84;4954166;29;20162;-72
2020/12/24 09:52:47;;;;;;;6.18;4.00;;;;;;;-1.79;97.38;99077.53;4954189;29;20486;-69
2020/12/24 09:55:33;;;;;;;5.97;3.60;;;;;;;-1.73;97.82;99073.91;4954481;29;20110;-67
2020/12/24 09:58:19;;;;;;;7.43;4.25;;;;;;;-1.74;97.83;99072.25;4925001;29;20086;-68
2020/12/24 10:01:06;;;;;;;6.80;3.67;;;;;;;-1.70;97.23;99076.34;4953682;29;20132;-66
2020/12/24 10:03:52;;;;;;;7.43;4.13;;;;;;;-1.68;97.85;99083.06;4940987;29;20110;-68
2020/12/24 10:06:38;;;;;;;6.53;3.83;;;;;;;-1.67;96.82;99076.19;4954148;28;20489;-69
2020/12/24 10:09:25;;;;;;;8.13;4.40;;;;;;;-1.71;96.85;99078.09;4954418;28;20054;-67
2020/12/24 10:12:11;;;;;;;7.05;3.88;;;;;;;-1.67;97.48;99078.75;4953251;29;20474;-66
2020/12/24 10:14:58;;;;;;;7.30;3.78;;;;;;;-1.66;97.41;99070.16;4955019;28;20455;-71
2020/12/24 10:17:44;;;;;;;8.57;4.95;;;;;;;-1.70;96.94;99074.63;4952499;29;20126;-68
2020/12/24 10:20:31;;;;;;;8.38;4.25;;;;;;;-1.66;96.82;99077.84;4953333;28;20098;-68
2020/12/24 10:23:17;;;;;;;6.25;3.90;;;;;;;-1.68;97.91;99071.97;4953714;29;20141;-71
2020/12/24 10:26:03;;;;;;;7.68;4.07;;;;;;;-1.67;96.76;99076.19;4954102;29;20503;-66
2020/12/24 10:28:50;;;;;;;7.78;4.25;;;;;;;-1.68;97.10;99071.97;4952558;28;20059;-70
2020/12/24 10:31:41;;;;;;;8.30;4.65;;;;;;;-1.67;96.82;99065.94;4953857;28;20059;-69
2020/12/24 10:34:27;;;;;;;6.95;3.78;;;;;;;-1.67;96.90;99078.75;4953678;28;20384;-68
2020/12/24 10:37:14;;;;;;;7.47;4.47;;;;;;;-1.70;97.24;99077.19;4953783;29;20043;-70
2020/12/24 10:40:00;;;;;;;7.97;4.63;;;;;;;-1.74;97.37;99074.81;4954204;28;20153;-69
2020/12/24 10:42:48;;;;;;;9.10;4.60;;;;;;;-1.75;97.62;99076.53;4953092;29;20047;-68
2020/12/24 10:45:34;;;;;;;7.75;4.55;;;;;;;-1.75;97.41;99076.53;4950200;28;20107;-69
2020/12/24 10:48:21;;;;;;;10.07;5.35;;;;;;;-1.78;98.63;99081.78;4952422;29;20047;-68
2020/12/24 10:51:08;;;;;;;10.18;5.75;;;;;;;-1.78;98.28;99074.09;4953025;28;20047;-70
2020/12/24 10:53:54;;;;;;;8.52;5.15;;;;;;;-1.79;98.41;99080.13;4953400;28;20726;-66
2020/12/24 10:56:48;;;;;;;8.90;4.63;;;;;;;-1.79;98.89;99077.53;4953671;28;20051;-72
2020/12/24 10:59:34;;;;;;;7.18;4.15;;;;;;;-1.78;97.92;99080.94;4940132;29;20039;-70
2020/12/24 11:02:22;;;;;;;8.30;5.00;;;;;;;-1.78;97.66;99079.22;4939431;29;20047;-70
2020/12/24 11:05:08;;;;;;;8.75;4.65;;;;;;;-1.75;98.10;99083.38;4939992;29;20074;-70
2020/12/24 11:07:55;;;;;;;8.93;4.72;;;;;;;-1.75;98.66;99081.66;4953088;29;20055;-71
2020/12/24 11:10:41;;;;;;;8.48;4.80;;;;;;;-1.74;97.88;99085.06;4953181;28;20047;-70
2020/12/24 11:13:27;;;;;;;8.95;5.18;;;;;;;-1.75;97.64;99091.91;4953264;28;20075;-67
2020/12/24 11:16:22;;;;;;;9.43;5.45;;;;;;;-1.77;98.06;99098.81;4953278;29;20050;-69
2020/12/24 11:19:08;;;;;;;9.65;5.35;;;;;;;-1.75;99.20;99099.59;4952081;28;20570;-70
2020/12/24 11:21:55;;;;;;;11.30;5.18;;;;;;;-1.73;98.89;99105.47;4952802;29;20054;-69
2020/12/24 11:24:41;;;;;;;9.45;5.68;;;;;;;-1.72;98.44;99103.75;4949477;28;20727;-68
2020/12/24 11:27:28;;;;;;;7.97;4.70;;;;;;;-1.72;97.72;99107.13;4952464;28;20094;-71
2020/12/24 11:30:14;;;;;;;8.60;4.78;;;;;;;-1.72;97.78;99112.28;4960035;28;20410;-66
2020/12/24 11:33:00;;;;;;;8.77;5.07;;;;;;;-1.72;98.14;99108.88;4951162;29;20047;-69
2020/12/24 11:35:47;;;;;;;8.65;4.93;;;;;;;-1.70;98.62;99104.53;4952916;28;20063;-71
2020/12/24 11:38:33;;;;;;;8.75;5.05;;;;;;;-1.68;99.34;99108.69;4948811;28;20455;-68
2020/12/24 11:41:24;;;;;;;8.35;4.65;;;;;;;-1.68;99.01;99108.69;4936844;29;20055;-68
2020/12/24 11:44:12;;;;;;;6.90;3.97;;;;;;;-1.76;99.23;99095.34;4950704;29;20044;-68
2020/12/24 11:46:58;;;;;;;8.40;4.63;;;;;;;-1.62;98.42;99108.44;4939514;29;20137;-69
2020/12/24 11:49:45;;;;;;;9.65;5.03;;;;;;;-1.63;99.04;99106.78;4952235;28;20059;-69
2020/12/24 11:52:36;;;;;;;9.35;5.30;;;;;;;-1.61;98.52;99106.72;4952674;29;20176;-67
2020/12/24 11:55:22;;;;;;;7.60;4.32;;;;;;;-1.60;98.36;99108.38;4939504;29;20048;-69
2020/12/24 11:58:09;;;;;;;8.65;5.25;;;;;;;-1.60;99.20;99110.94;4952479;29;20051;-69
2020/12/24 12:00:55;;;;;;;7.57;4.20;;;;;;;-1.63;98.81;99114.47;4952246;28;20114;-71
2020/12/24 12:03:42;;;;;;;10.82;5.05;;;;;;;-1.62;98.71;99116.13;4952681;28;20051;-70
2020/12/24 12:06:28;;;;;;;7.07;4.45;;;;;;;-1.65;98.28;99115.44;4936315;29;20051;-67
2020/12/24 12:09:14;;;;;;;8.43;4.88;;;;;;;-1.64;98.53;99115.38;4952411;29;20086;-70
2020/12/24 12:12:01;;;;;;;6.85;4.10;;;;;;;-1.62;99.54;99115.28;4938079;29;20043;-69
2020/12/24 12:14:47;;;;;;;9.02;5.25;;;;;;;-1.62;99.27;99111.00;4950166;29;20053;-69
2020/12/24 12:17:34;;;;;;;8.45;4.88;;;;;;;-1.64;98.84;99117.94;4952635;28;20106;-68
2020/12/24 12:20:20;;;;;;;8.65;5.18;;;;;;;-1.67;98.92;99115.47;4951814;28;20047;-70
2020/12/24 12:23:06;;;;;;;8.60;4.85;;;;;;;-1.66;99.48;99117.16;4952153;29;20451;-70
2020/12/24 12:25:53;;;;;;;8.45;5.10;;;;;;;-1.65;99.49;99123.97;4952513;29;20110;-68
2020/12/24 12:28:44;;;;;;;9.18;4.63;;;;;;;-1.65;99.30;99111.13;4952278;29;20047;-71
2020/12/24 12:31:30;;;;;;;7.15;3.97;;;;;;;-1.61;99.60;99124.66;4952093;29;20106;-73
2020/12/24 12:34:16;;;;;;;8.65;5.63;;;;;;;-1.61;98.57;99125.50;4952146;28;20095;-68
2020/12/24 12:37:03;;;;;;;9.05;5.50;;;;;;;-1.60;99.13;99132.28;4949556;28;20051;-72
2020/12/24 12:39:51;;;;;;;8.60;5.28;;;;;;;-1.62;98.69;99134.06;4952285;28;20051;-69
2020/12/24 12:42:37;;;;;;;8.93;5.30;;;;;;;-1.62;99.75;99131.50;4953525;28;20656;-70
2020/12/24 12:45:25;;;;;;;10.98;5.15;;;;;;;-1.61;99.64;99140.06;4955780;28;20181;-69
2020/12/24 12:48:11;;;;;;;8.90;4.25;;;;;;;-1.59;99.44;99135.69;4955638;28;20149;-72
2020/12/24 12:50:57;;;;;;;9.27;5.65;;;;;;;-1.61;99.19;99140.06;4942201;29;20047;-66
2020/12/24 12:53:45;;;;;;;13.10;6.90;;;;;;;-1.62;98.98;99136.63;4956178;28;20106;-71
2020/12/24 12:56:48;;;;;;;8.07;5.00;;;;;;;-1.62;98.80;99133.22;4955907;28;20047;-72
2020/12/24 12:59:35;;;;;;;8.07;4.30;;;;;;;-1.60;99.06;99139.97;4942041;29;20098;-69
2020/12/24 13:02:21;;;;;;;7.05;4.20;;;;;;;-1.59;98.74;99139.06;4940521;29;20054;-68
2020/12/24 13:05:08;;;;;;;9.85;5.18;;;;;;;-1.59;98.77;99135.69;4955456;29;20577;-74
2020/12/24 13:07:54;;;;;;;7.75;4.65;;;;;;;-1.59;99.57;99135.69;4955501;29;20098;-71
2020/12/24 13:10:40;;;;;;;7.97;4.75;;;;;;;-1.57;99.60;99134.75;4936768;28;20083;-69
2020/12/24 13:13:27;;;;;;;8.35;4.38;;;;;;;-1.58;99.57;99132.22;4936490;29;20454;-71